createdAt,value
2019-04-06T00:01:12.617Z,7.03
2019-04-06T00:03:17.372Z,6.40
2019-04-06T00:05:22.419Z,6.30
2019-04-06T00:07:27.159Z,6.67
2019-04-06T00:09:31.845Z,6.17
2019-04-06T00:11:36.604Z,6.57
2019-04-06T00:13:41.375Z,6.63
2019-04-06T00:15:46.030Z,6.40
2019-04-06T00:17:50.707Z,6.73
2019-04-06T00:19:55.554Z,6.97
2019-04-06T00:22:00.442Z,6.97
2019-04-06T00:24:06.326Z,6.60
2019-04-06T00:26:11.154Z,6.70
2019-04-06T00:28:15.926Z,6.53
2019-04-06T00:30:20.859Z,6.37
2019-04-06T00:32:35.629Z,6.30
2019-04-06T00:34:40.373Z,6.67
2019-04-06T00:36:45.141Z,6.80
2019-04-06T00:38:53.333Z,6.67
2019-04-06T00:40:58.065Z,6.50
2019-04-06T00:43:03.029Z,6.20
2019-04-06T00:45:07.854Z,6.13
2019-04-06T00:47:12.618Z,6.47
2019-04-06T00:49:17.363Z,7.13
2019-04-06T00:51:22.202Z,6.33
2019-04-06T00:53:26.932Z,6.67
2019-04-06T00:55:32.692Z,6.50
2019-04-06T00:57:37.342Z,6.93
2019-04-06T00:59:42.194Z,6.13
2019-04-06T01:01:47.143Z,6.47
2019-04-06T01:03:51.994Z,6.87
2019-04-06T01:05:56.777Z,6.53
2019-04-06T01:08:01.500Z,6.70
2019-04-06T01:10:07.034Z,5.90
2019-04-06T01:12:11.808Z,6.47
2019-04-06T01:14:16.543Z,6.17
2019-04-06T01:16:22.341Z,6.10
2019-04-06T01:18:27.066Z,6.40
2019-04-06T01:20:31.804Z,6.23
2019-04-06T01:22:38.555Z,6.50
2019-04-06T01:24:43.295Z,6.07
2019-04-06T01:26:48.101Z,5.97
2019-04-06T01:28:52.896Z,6.53
2019-04-06T01:30:57.588Z,6.37
2019-04-06T01:33:02.281Z,6.13
2019-04-06T01:35:07.144Z,6.60
2019-04-06T01:37:12.205Z,6.93
2019-04-06T01:39:16.964Z,6.53
2019-04-06T01:41:21.617Z,6.37
2019-04-06T01:43:26.320Z,6.13
2019-04-06T01:45:30.965Z,6.20
2019-04-06T01:47:35.652Z,6.73
2019-04-06T01:49:40.351Z,6.60
2019-04-06T01:51:45.370Z,6.23
2019-04-06T01:53:50.098Z,6.17
2019-04-06T01:55:54.796Z,6.27
2019-04-06T01:57:59.623Z,6.70
2019-04-06T02:00:06.882Z,6.43
2019-04-06T02:02:16.672Z,6.40
2019-04-06T02:04:21.433Z,6.23
2019-04-06T02:06:26.115Z,6.07
2019-04-06T02:08:30.855Z,6.53
2019-04-06T02:10:37.085Z,5.93
2019-04-06T02:12:43.894Z,6.23
2019-04-06T02:14:48.595Z,6.50
2019-04-06T02:16:53.334Z,5.90
2019-04-06T02:18:58.744Z,6.20
2019-04-06T02:21:03.513Z,5.90
2019-04-06T02:23:08.305Z,5.77
2019-04-06T02:25:13.125Z,6.47
2019-04-06T02:27:17.952Z,6.37
2019-04-06T02:29:22.696Z,5.87
2019-04-06T02:31:46.658Z,6.50
2019-04-06T02:34:02.296Z,5.70
2019-04-06T02:36:17.551Z,5.77
2019-04-06T02:38:34.870Z,6.43
2019-04-06T02:40:58.942Z,6.67
2019-04-06T02:43:07.277Z,6.43
2019-04-06T02:45:12.056Z,6.03
2019-04-06T02:47:16.928Z,5.73
2019-04-06T02:49:21.759Z,6.10
2019-04-06T02:51:27.507Z,6.03
2019-04-06T02:53:32.347Z,5.77
2019-04-06T02:55:37.157Z,6.33
2019-04-06T02:57:41.911Z,6.00
2019-04-06T02:59:46.760Z,6.27
2019-04-06T03:01:51.541Z,6.33
2019-04-06T03:03:56.369Z,6.47
2019-04-06T03:06:01.299Z,5.70
2019-04-06T03:08:06.021Z,6.10
2019-04-06T03:10:10.742Z,5.73
2019-04-06T03:12:16.683Z,6.17
2019-04-06T03:14:21.460Z,5.87
2019-04-06T03:16:26.305Z,6.07
2019-04-06T03:18:30.971Z,5.90
2019-04-06T03:20:35.732Z,6.00
2019-04-06T03:22:40.446Z,5.90
2019-04-06T03:24:45.160Z,6.20
2019-04-06T03:27:01.021Z,5.80
2019-04-06T03:28:56.484Z,6.17
2019-04-06T03:31:01.767Z,6.10
2019-04-06T03:33:07.600Z,5.60
2019-04-06T03:35:12.357Z,5.77
2019-04-06T03:37:17.237Z,5.77
2019-04-06T03:39:22.045Z,6.10
2019-04-06T03:41:26.794Z,6.13
2019-04-06T03:43:31.479Z,6.37
2019-04-06T03:45:36.169Z,5.77
2019-04-06T03:47:41.929Z,6.50
2019-04-06T03:49:46.575Z,5.93
2019-04-06T03:51:51.216Z,5.90
2019-04-06T03:53:55.929Z,5.90
2019-04-06T03:56:00.638Z,5.43
2019-04-06T03:58:05.328Z,5.43
2019-04-06T04:00:10.032Z,5.47
2019-04-06T04:02:14.724Z,5.93
2019-04-06T04:04:19.427Z,6.00
2019-04-06T04:06:25.131Z,5.90
2019-04-06T04:08:29.838Z,5.77
2019-04-06T04:10:37.919Z,6.33
2019-04-06T04:12:42.580Z,5.33
2019-04-06T04:14:47.489Z,6.23
2019-04-06T04:16:52.200Z,6.10
2019-04-06T04:18:57.037Z,5.80
2019-04-06T04:21:01.833Z,6.43
2019-04-06T04:23:06.532Z,5.90
2019-04-06T04:25:12.671Z,6.00
2019-04-06T04:27:27.708Z,5.80
2019-04-06T04:29:23.705Z,5.40
2019-04-06T04:31:28.419Z,5.77
2019-04-06T04:33:33.143Z,5.83
2019-04-06T04:35:37.797Z,5.47
2019-04-06T04:37:43.420Z,5.57
2019-04-06T04:39:48.146Z,5.73
2019-04-06T04:41:52.937Z,6.20
2019-04-06T04:43:57.725Z,5.60
2019-04-06T04:46:02.516Z,5.77
2019-04-06T04:48:07.230Z,6.03
2019-04-06T04:50:11.980Z,5.70
2019-04-06T04:52:16.740Z,5.40
2019-04-06T04:54:21.533Z,5.63
2019-04-06T04:56:26.282Z,5.57
2019-04-06T04:58:31.050Z,6.00
2019-04-06T05:00:35.734Z,5.77
2019-04-06T05:02:40.544Z,6.00
2019-04-06T05:04:45.291Z,6.17
2019-04-06T05:06:50.148Z,6.20
2019-04-06T05:08:54.997Z,5.80
2019-04-06T05:10:59.889Z,6.10
2019-04-06T05:13:04.714Z,5.30
2019-04-06T05:15:10.905Z,5.70
2019-04-06T05:17:15.684Z,6.37
2019-04-06T05:19:20.415Z,6.20
2019-04-06T05:21:26.069Z,5.80
2019-04-06T05:23:31.045Z,6.20
2019-04-06T05:25:35.850Z,6.00
2019-04-06T05:27:51.288Z,5.80
2019-04-06T05:29:47.548Z,5.93
2019-04-06T05:31:52.323Z,5.93
2019-04-06T05:33:57.103Z,5.50
2019-04-06T05:36:01.885Z,5.33
2019-04-06T05:38:08.376Z,5.87
2019-04-06T05:40:13.265Z,6.10
2019-04-06T05:42:18.303Z,5.77
2019-04-06T05:44:23.162Z,5.83
2019-04-06T05:46:27.866Z,5.73
2019-04-06T05:48:32.623Z,5.80
2019-04-06T05:50:38.548Z,5.37
2019-04-06T05:52:43.482Z,5.97
2019-04-06T05:54:48.208Z,6.00
2019-04-06T05:56:52.995Z,6.20
2019-04-06T05:58:58.124Z,6.60
2019-04-06T06:01:04.074Z,6.07
2019-04-06T06:03:10.723Z,6.43
2019-04-06T06:05:15.686Z,6.40
2019-04-06T06:07:20.369Z,7.10
2019-04-06T06:09:25.048Z,6.80
2019-04-06T06:11:29.783Z,5.90
2019-04-06T06:13:34.564Z,6.63
2019-04-06T06:15:39.269Z,6.37
2019-04-06T06:17:44.320Z,6.77
2019-04-06T06:19:50.184Z,6.73
2019-04-06T06:21:57.271Z,6.80
2019-04-06T06:24:02.181Z,6.80
2019-04-06T06:26:10.183Z,7.10
2019-04-06T06:28:15.597Z,6.53
2019-04-06T06:30:20.519Z,6.93
2019-04-06T06:32:25.372Z,7.03
2019-04-06T06:34:32.083Z,6.00
2019-04-06T06:36:36.999Z,6.83
2019-04-06T06:38:41.894Z,7.07
2019-04-06T06:40:50.086Z,6.87
2019-04-06T06:42:54.979Z,6.60
2019-04-06T06:44:59.761Z,7.03
2019-04-06T06:47:04.572Z,6.37
2019-04-06T06:49:09.331Z,6.47
2019-04-06T06:51:14.239Z,6.57
2019-04-06T06:53:19.120Z,6.50
2019-04-06T06:55:23.929Z,6.50
2019-04-06T06:57:28.934Z,6.50
2019-04-06T06:59:33.695Z,6.10
2019-04-06T07:01:38.695Z,6.27
2019-04-06T07:03:43.524Z,5.90
2019-04-06T07:05:48.672Z,6.93
2019-04-06T07:07:53.551Z,6.80
2019-04-06T07:10:05.046Z,7.20
2019-04-06T07:12:04.893Z,6.53
2019-04-06T07:14:09.662Z,6.00
2019-04-06T07:16:14.492Z,6.27
2019-04-06T07:18:19.406Z,6.80
2019-04-06T07:20:24.758Z,6.60
2019-04-06T07:22:29.624Z,6.70
2019-04-06T07:24:34.411Z,6.50
2019-04-06T07:26:41.235Z,6.40
2019-04-06T07:28:46.023Z,6.63
2019-04-06T07:30:50.994Z,6.60
2019-04-06T07:32:55.867Z,6.83
2019-04-06T07:35:00.767Z,6.60
2019-04-06T07:37:05.884Z,6.37
2019-04-06T07:39:10.893Z,6.73
2019-04-06T07:41:15.664Z,6.17
2019-04-06T07:43:20.490Z,6.93
2019-04-06T07:45:25.269Z,6.70
2019-04-06T07:47:30.201Z,6.43
2019-04-06T07:49:35.134Z,7.07
2019-04-06T07:51:39.986Z,7.13
2019-04-06T07:53:48.159Z,7.93
2019-04-06T07:55:55.562Z,7.43
2019-04-06T07:58:00.735Z,7.40
2019-04-06T08:00:05.753Z,7.07
2019-04-06T08:02:14.298Z,6.80
2019-04-06T08:04:19.622Z,7.13
2019-04-06T08:06:24.438Z,7.03
2019-04-06T08:08:29.335Z,6.93
2019-04-06T08:10:34.084Z,7.50
2019-04-06T08:12:38.875Z,7.03
2019-04-06T08:14:43.613Z,7.57
2019-04-06T08:16:48.868Z,7.80
2019-04-06T08:18:53.763Z,7.27
2019-04-06T08:20:58.519Z,7.67
2019-04-06T08:23:03.380Z,7.20
2019-04-06T08:25:08.493Z,6.57
2019-04-06T08:27:13.273Z,7.33
2019-04-06T08:29:18.149Z,7.07
2019-04-06T08:31:22.898Z,7.70
2019-04-06T08:33:27.559Z,7.40
2019-04-06T08:35:32.494Z,7.30
2019-04-06T08:37:37.278Z,7.63
2019-04-06T08:39:42.010Z,7.97
2019-04-06T08:41:46.814Z,7.73
2019-04-06T08:43:51.608Z,6.87
2019-04-06T08:45:56.316Z,7.27
2019-04-06T08:48:01.053Z,7.07
2019-04-06T08:50:06.527Z,6.63
2019-04-06T08:52:11.721Z,7.40
2019-04-06T08:54:16.694Z,7.13
2019-04-06T08:56:21.605Z,7.03
2019-04-06T08:58:27.575Z,7.20
2019-04-06T09:00:32.294Z,8.00
2019-04-06T09:02:36.994Z,7.17
2019-04-06T09:04:41.730Z,7.20
2019-04-06T09:06:48.216Z,7.50
2019-04-06T09:08:53.132Z,7.27
2019-04-06T09:11:01.631Z,6.57
2019-04-06T09:13:06.735Z,6.87
2019-04-06T09:15:13.073Z,6.93
2019-04-06T09:17:17.893Z,6.97
2019-04-06T09:19:22.796Z,6.97
2019-04-06T09:21:27.647Z,7.00
2019-04-06T09:23:32.503Z,6.67
2019-04-06T09:25:37.519Z,7.53
2019-04-06T09:27:42.519Z,7.10
2019-04-06T09:29:47.349Z,7.10
2019-04-06T09:31:53.200Z,7.10
2019-04-06T09:33:58.309Z,7.23
2019-04-06T09:36:03.348Z,6.87
2019-04-06T09:38:10.632Z,6.80
2019-04-06T09:40:15.336Z,6.57
2019-04-06T09:42:20.056Z,6.40
2019-04-06T09:44:39.859Z,6.23
2019-04-06T09:47:03.726Z,7.27
2019-04-06T09:49:22.404Z,6.53
2019-04-06T09:51:46.150Z,6.60
2019-04-06T09:54:09.965Z,7.37
2019-04-06T09:56:33.773Z,7.37
2019-04-06T09:58:45.002Z,6.43
2019-04-06T10:00:59.343Z,6.53
2019-04-06T10:03:23.246Z,6.87
2019-04-06T10:05:47.204Z,7.07
2019-04-06T10:08:11.279Z,6.60
2019-04-06T10:10:35.210Z,6.33
2019-04-06T10:12:58.993Z,6.30
2019-04-06T10:15:18.366Z,6.03
2019-04-06T10:17:42.594Z,6.20
2019-04-06T10:19:54.706Z,7.00
2019-04-06T10:22:12.339Z,6.17
2019-04-06T10:24:31.723Z,6.10
2019-04-06T10:26:55.875Z,6.80
2019-04-06T10:29:10.500Z,6.57
2019-04-06T10:31:32.147Z,7.10
2019-04-06T10:33:47.587Z,6.67
2019-04-06T10:36:11.377Z,6.93
2019-04-06T10:38:34.239Z,6.10
2019-04-06T10:40:58.047Z,6.57
2019-04-06T10:43:21.849Z,6.97
2019-04-06T10:45:45.596Z,7.03
2019-04-06T10:48:09.471Z,6.90
2019-04-06T10:50:33.292Z,6.73
2019-04-06T10:52:57.096Z,6.57
2019-04-06T10:55:20.855Z,6.53
2019-04-06T10:57:44.616Z,6.77
2019-04-06T11:00:02.254Z,6.37
2019-04-06T11:02:23.493Z,7.07
2019-04-06T11:04:36.029Z,6.20
2019-04-06T11:06:50.699Z,6.37
2019-04-06T11:09:12.380Z,6.73
2019-04-06T11:11:36.180Z,6.53
2019-04-06T11:13:59.943Z,6.87
2019-04-06T11:16:21.077Z,6.77
2019-04-06T11:18:45.426Z,7.00
2019-04-06T11:21:11.161Z,6.60
2019-04-06T11:23:35.278Z,7.60
2019-04-06T11:25:59.384Z,7.37
2019-04-06T11:28:23.160Z,6.43
2019-04-06T11:30:48.882Z,7.07
2019-04-06T11:33:07.557Z,6.80
2019-04-06T11:35:18.900Z,7.10
2019-04-06T11:37:34.524Z,6.63
2019-04-06T11:39:56.468Z,6.73
2019-04-06T11:42:20.430Z,6.80
2019-04-06T11:44:32.390Z,6.73
2019-04-06T11:46:57.245Z,6.97
2019-04-06T11:49:15.795Z,6.47
2019-04-06T11:51:39.737Z,6.63
2019-04-06T11:53:54.440Z,6.43
2019-04-06T11:56:18.596Z,7.17
2019-04-06T11:58:42.496Z,6.93
2019-04-06T12:01:08.468Z,6.40
2019-04-06T12:03:32.252Z,6.47
2019-04-06T12:05:42.809Z,6.47
2019-04-06T12:07:57.518Z,7.03
2019-04-06T12:10:16.020Z,7.00
2019-04-06T12:12:40.265Z,6.73
2019-04-06T12:15:04.194Z,6.70
2019-04-06T12:17:27.700Z,6.57
2019-04-06T12:19:52.504Z,6.27
2019-04-06T12:22:16.383Z,6.67
2019-04-06T12:24:30.137Z,6.40
2019-04-06T12:26:54.170Z,6.30
2019-04-06T12:29:16.951Z,6.60
2019-04-06T12:31:32.653Z,6.30
2019-04-06T12:33:56.679Z,6.43
2019-04-06T12:36:20.656Z,7.10
2019-04-06T12:38:44.674Z,6.70
2019-04-06T12:41:08.604Z,6.43
2019-04-06T12:43:32.028Z,6.73
2019-04-06T12:45:55.838Z,6.83
2019-04-06T12:48:15.148Z,7.70
2019-04-06T12:50:38.995Z,6.60
2019-04-06T12:53:02.870Z,6.60
2019-04-06T12:55:16.165Z,6.90
2019-04-06T12:57:31.432Z,7.00
2019-04-06T12:59:56.277Z,6.60
2019-04-06T13:02:09.676Z,6.83
2019-04-06T13:04:33.477Z,6.67
2019-04-06T13:06:52.091Z,6.90
2019-04-06T13:09:16.077Z,7.20
2019-04-06T13:11:40.062Z,6.80
2019-04-06T13:14:03.953Z,7.30
2019-04-06T13:16:21.544Z,6.07
2019-04-06T13:18:41.241Z,6.80
2019-04-06T13:21:05.014Z,7.17
2019-04-06T13:23:28.880Z,6.47
2019-04-06T13:25:53.079Z,6.53
2019-04-06T13:28:16.976Z,6.93
2019-04-06T13:30:36.110Z,6.67
2019-04-06T13:32:47.947Z,6.87
2019-04-06T13:35:11.763Z,6.70
2019-04-06T13:37:34.582Z,6.50
2019-04-06T13:39:58.737Z,7.37
2019-04-06T13:42:22.745Z,7.20
2019-04-06T13:44:47.009Z,7.30
2019-04-06T13:47:09.006Z,7.23
2019-04-06T13:49:33.092Z,7.30
2019-04-06T13:51:57.051Z,7.10
2019-04-06T13:54:20.885Z,6.90
2019-04-06T13:56:44.686Z,6.37
2019-04-06T13:58:55.262Z,7.37
2019-04-06T14:01:17.413Z,7.37
2019-04-06T14:03:27.853Z,6.90
2019-04-06T14:05:38.745Z,7.17
2019-04-06T14:07:50.305Z,6.43
2019-04-06T14:10:05.728Z,6.90
2019-04-06T14:12:20.779Z,7.20
2019-04-06T14:14:32.411Z,6.60
2019-04-06T14:16:56.648Z,6.77
2019-04-06T14:19:20.668Z,6.67
2019-04-06T14:21:33.163Z,6.53
2019-04-06T14:23:57.375Z,6.87
2019-04-06T14:26:18.047Z,6.87
2019-04-06T14:28:41.890Z,6.40
2019-04-06T14:31:08.466Z,7.00
2019-04-06T14:33:32.259Z,6.63
2019-04-06T14:35:54.167Z,6.80
2019-04-06T14:38:18.028Z,6.90
2019-04-06T14:40:41.866Z,6.93
2019-04-06T14:43:05.693Z,6.77
2019-04-06T14:45:19.885Z,6.93
2019-04-06T14:47:33.409Z,6.70
2019-04-06T14:49:52.330Z,7.00
2019-04-06T14:52:07.209Z,6.83
2019-04-06T14:54:18.470Z,7.00
2019-04-06T14:56:42.234Z,7.13
2019-04-06T14:59:06.036Z,6.90
2019-04-06T15:01:38.507Z,7.17
2019-04-06T15:03:50.078Z,7.10
2019-04-06T15:06:10.081Z,7.23
2019-04-06T15:08:23.410Z,7.07
2019-04-06T15:10:41.200Z,7.17
2019-04-06T15:13:04.978Z,6.90
2019-04-06T15:15:26.655Z,7.27
2019-04-06T15:17:40.374Z,7.00
2019-04-06T15:20:04.425Z,7.60
2019-04-06T15:22:27.654Z,7.03
2019-04-06T15:24:44.638Z,6.90
2019-04-06T15:27:08.584Z,7.57
2019-04-06T15:29:29.591Z,7.40
2019-04-06T15:31:53.592Z,7.20
2019-04-06T15:34:17.608Z,6.90
2019-04-06T15:36:42.015Z,7.50
2019-04-06T15:39:06.023Z,7.40
2019-04-06T15:41:29.986Z,8.00
2019-04-06T15:43:53.872Z,8.10
2019-04-06T15:46:17.786Z,7.73
2019-04-06T15:48:41.881Z,7.50
2019-04-06T15:51:02.937Z,7.93
2019-04-06T15:53:25.322Z,8.20
2019-04-06T15:55:38.527Z,7.50
2019-04-06T15:57:54.394Z,8.33
2019-04-06T16:00:18.330Z,8.80
2019-04-06T16:02:31.409Z,7.73
2019-04-06T16:04:42.608Z,8.03
2019-04-06T16:06:58.480Z,8.70
2019-04-06T16:09:22.589Z,8.67
2019-04-06T16:11:46.548Z,8.30
2019-04-06T16:14:10.293Z,7.83
2019-04-06T16:16:34.228Z,9.00
2019-04-06T16:18:58.330Z,7.87
2019-04-06T16:21:22.255Z,8.40
2019-04-06T16:23:43.373Z,7.77
2019-04-06T16:26:01.866Z,8.23
2019-04-06T16:28:25.756Z,8.43
2019-04-06T16:30:51.412Z,8.63
2019-04-06T16:33:09.109Z,8.60
2019-04-06T16:35:26.864Z,8.67
2019-04-06T16:37:44.725Z,8.47
2019-04-06T16:40:03.591Z,8.37
2019-04-06T16:42:27.526Z,8.70
2019-04-06T16:44:56.119Z,8.47
2019-04-06T16:47:20.463Z,8.27
2019-04-06T16:49:46.464Z,8.23
2019-04-06T16:52:10.778Z,8.60
2019-04-06T16:54:34.937Z,8.03
2019-04-06T16:56:58.886Z,8.30
2019-04-06T16:59:23.976Z,8.80
2019-04-06T17:01:48.254Z,8.77
2019-04-06T17:04:12.360Z,8.23
2019-04-06T17:06:41.981Z,8.47
2019-04-06T17:09:03.514Z,8.80
2019-04-06T17:11:33.698Z,8.23
2019-04-06T17:13:48.894Z,9.23
2019-04-06T17:16:15.767Z,8.17
2019-04-06T17:18:43.308Z,8.57
2019-04-06T17:20:56.678Z,8.27
2019-04-06T17:23:10.618Z,8.13
2019-04-06T17:25:28.026Z,8.17
2019-04-06T17:27:49.744Z,8.37
2019-04-06T17:30:13.934Z,8.23
2019-04-06T17:32:38.249Z,8.30
2019-04-06T17:35:01.383Z,7.77
2019-04-06T17:37:25.472Z,8.67
2019-04-06T17:39:42.768Z,8.50
2019-04-06T17:42:06.670Z,8.57
2019-04-06T17:44:31.393Z,7.83
2019-04-06T17:46:51.792Z,8.77
2019-04-06T17:49:15.828Z,8.13
2019-04-06T17:51:30.286Z,8.67
2019-04-06T17:53:56.080Z,8.20
2019-04-06T17:56:18.158Z,8.73
2019-04-06T17:58:39.673Z,8.27
2019-04-06T18:00:54.163Z,8.07
2019-04-06T18:03:19.226Z,8.50
2019-04-06T18:05:48.777Z,8.83
2019-04-06T18:08:00.115Z,8.20
2019-04-06T18:10:25.600Z,8.53
2019-04-06T18:12:45.943Z,9.13
2019-04-06T18:14:59.124Z,8.60
2019-04-06T18:17:15.186Z,9.23
2019-04-06T18:19:20.518Z,8.50
2019-04-06T18:21:25.796Z,8.00
2019-04-06T18:23:40.327Z,9.40
2019-04-06T18:25:47.636Z,8.90
2019-04-06T18:27:58.877Z,9.03
2019-04-06T18:30:05.850Z,8.33
2019-04-06T18:32:30.205Z,8.53
2019-04-06T18:34:35.282Z,8.80
2019-04-06T18:36:59.203Z,9.10
2019-04-06T18:39:08.246Z,8.07
2019-04-06T18:41:13.163Z,8.87
2019-04-06T18:43:34.531Z,8.73
2019-04-06T18:45:52.318Z,8.20
2019-04-06T18:48:05.952Z,8.53
2019-04-06T18:50:33.264Z,8.90
2019-04-06T18:52:46.369Z,8.63
2019-04-06T18:55:06.532Z,9.60
2019-04-06T18:57:33.287Z,8.47
2019-04-06T18:59:39.655Z,8.03
2019-04-06T19:02:00.709Z,8.43
2019-04-06T19:04:23.828Z,8.47
2019-04-06T19:06:36.196Z,8.60
2019-04-06T19:08:55.180Z,9.50
2019-04-06T19:11:20.940Z,7.87
2019-04-06T19:13:39.634Z,8.53
2019-04-06T19:15:56.120Z,8.67
2019-04-06T19:18:03.161Z,8.30
2019-04-06T19:20:10.465Z,8.10
2019-04-06T19:22:30.424Z,8.37
2019-04-06T19:25:13.235Z,8.60
2019-04-06T19:27:31.819Z,8.20
2019-04-06T19:29:37.289Z,8.77
2019-04-06T19:31:42.286Z,8.53
2019-04-06T19:33:47.487Z,7.97
2019-04-06T19:35:52.878Z,8.90
2019-04-06T19:37:59.592Z,7.93
2019-04-06T19:40:06.146Z,8.20
2019-04-06T19:42:11.034Z,7.97
2019-04-06T19:44:16.116Z,9.33
2019-04-06T19:46:21.562Z,8.53
2019-04-06T19:48:26.891Z,8.07
2019-04-06T19:50:31.734Z,8.13
2019-04-06T19:52:36.590Z,8.33
2019-04-06T19:54:41.805Z,8.00
2019-04-06T19:56:46.736Z,8.43
2019-04-06T19:58:51.762Z,7.93
2019-04-06T20:00:58.675Z,8.37
2019-04-06T20:03:06.025Z,7.87
2019-04-06T20:05:25.130Z,8.60
2019-04-06T20:07:33.274Z,8.20
2019-04-06T20:09:44.999Z,7.07
2019-04-06T20:12:04.376Z,8.10
2019-04-06T20:14:06.254Z,7.93
2019-04-06T20:16:18.809Z,8.40
2019-04-06T20:18:34.607Z,7.33
2019-04-06T20:20:40.663Z,8.20
2019-04-06T20:22:49.063Z,8.23
2019-04-06T20:25:01.634Z,8.00
2019-04-06T20:27:17.816Z,7.67
2019-04-06T20:29:27.376Z,7.87
2019-04-06T20:31:40.656Z,7.50
2019-04-06T20:33:56.055Z,8.03
2019-04-06T20:36:08.102Z,8.40
2019-04-06T20:38:19.567Z,7.70
2019-04-06T20:40:32.566Z,7.73
2019-04-06T20:42:45.177Z,8.03
2019-04-06T20:44:59.136Z,7.53
2019-04-06T20:47:14.777Z,8.27
2019-04-06T20:49:22.048Z,8.20
2019-04-06T20:51:31.660Z,8.03
2019-04-06T20:53:36.741Z,8.27
2019-04-06T20:55:41.946Z,8.10
2019-04-06T20:57:47.325Z,7.90
2019-04-06T20:59:52.237Z,7.87
2019-04-06T21:01:56.984Z,7.20
2019-04-06T21:04:03.079Z,7.73
2019-04-06T21:06:07.898Z,7.07
2019-04-06T21:08:12.667Z,8.00
2019-04-06T21:10:17.736Z,7.67
2019-04-06T21:12:22.770Z,7.87
2019-04-06T21:14:27.468Z,7.77
2019-04-06T21:16:32.264Z,7.47
2019-04-06T21:18:37.061Z,7.00
2019-04-06T21:20:42.025Z,7.37
2019-04-06T21:22:46.850Z,8.13
2019-04-06T21:24:51.829Z,8.00
2019-04-06T21:26:57.115Z,7.70
2019-04-06T21:29:03.656Z,7.40
2019-04-06T21:31:08.732Z,7.50
2019-04-06T21:33:16.485Z,8.20
2019-04-06T21:35:21.753Z,8.07
2019-04-06T21:37:26.503Z,7.47
2019-04-06T21:39:33.350Z,7.57
2019-04-06T21:41:38.464Z,7.43
2019-04-06T21:43:43.455Z,7.63
2019-04-06T21:45:48.348Z,7.77
2019-04-06T21:47:53.113Z,7.43
2019-04-06T21:49:58.074Z,8.00
2019-04-06T21:52:03.145Z,8.00
2019-04-06T21:54:08.352Z,7.87
2019-04-06T21:56:13.090Z,7.53
2019-04-06T21:58:17.914Z,6.93
2019-04-06T22:00:38.591Z,7.50
2019-04-06T22:02:45.115Z,7.30
2019-04-06T22:04:49.827Z,7.33
2019-04-06T22:06:55.793Z,7.27
2019-04-06T22:09:00.691Z,7.10
2019-04-06T22:11:07.076Z,7.97
2019-04-06T22:13:11.837Z,7.63
2019-04-06T22:15:16.691Z,6.93
2019-04-06T22:17:21.490Z,7.80
2019-04-06T22:19:26.852Z,7.53
2019-04-06T22:21:32.082Z,7.63
2019-04-06T22:23:42.227Z,7.83
2019-04-06T22:25:43.639Z,7.33
2019-04-06T22:27:48.407Z,6.97
2019-04-06T22:29:53.245Z,7.90
2019-04-06T22:31:58.676Z,7.13
2019-04-06T22:34:03.558Z,7.83
2019-04-06T22:36:08.851Z,7.73
2019-04-06T22:38:13.711Z,7.37
2019-04-06T22:40:18.434Z,7.83
2019-04-06T22:42:23.807Z,7.50
2019-04-06T22:44:29.092Z,6.70
2019-04-06T22:46:33.947Z,7.30
2019-04-06T22:48:39.183Z,7.53
2019-04-06T22:50:44.145Z,7.07
2019-04-06T22:52:48.994Z,7.20
2019-04-06T22:54:54.276Z,6.97
2019-04-06T22:56:59.073Z,7.37
2019-04-06T22:59:03.931Z,7.90
2019-04-06T23:01:11.680Z,7.20
2019-04-06T23:03:35.748Z,7.27
2019-04-06T23:05:45.293Z,7.60
2019-04-06T23:07:50.690Z,6.83
2019-04-06T23:09:55.580Z,7.40
2019-04-06T23:12:00.751Z,8.00
2019-04-06T23:14:06.405Z,7.63
2019-04-06T23:16:11.449Z,7.50
2019-04-06T23:18:16.362Z,7.43
2019-04-06T23:20:21.803Z,7.20
2019-04-06T23:22:27.390Z,7.37
2019-04-06T23:24:32.945Z,6.93
2019-04-06T23:26:38.152Z,7.23
2019-04-06T23:28:43.348Z,7.63
2019-04-06T23:30:48.199Z,6.77
2019-04-06T23:32:54.022Z,6.77
2019-04-06T23:35:01.979Z,7.10
2019-04-06T23:37:05.310Z,7.40
2019-04-06T23:39:10.830Z,7.10
2019-04-06T23:41:16.212Z,7.10
2019-04-06T23:43:21.236Z,7.43
2019-04-06T23:45:26.251Z,7.73
2019-04-06T23:47:31.044Z,7.27
2019-04-06T23:49:35.898Z,7.13
2019-04-06T23:51:40.592Z,7.03
2019-04-06T23:53:45.515Z,7.73
2019-04-06T23:55:50.344Z,7.37
2019-04-06T23:57:56.087Z,7.40
